createdAt,value
2018-11-01T00:01:59.587Z,7.20
2018-11-01T00:04:28.606Z,7.20
2018-11-01T00:06:57.659Z,7.20
2018-11-01T00:09:26.775Z,7.20
2018-11-01T00:12:02.533Z,7.20
2018-11-01T00:14:31.507Z,7.20
2018-11-01T00:17:00.536Z,7.20
2018-11-01T00:19:29.555Z,7.20
2018-11-01T00:21:58.620Z,7.20
2018-11-01T00:24:27.608Z,7.20
2018-11-01T00:26:56.608Z,7.20
2018-11-01T00:29:25.645Z,7.20
2018-11-01T00:31:54.681Z,7.10
2018-11-01T00:34:23.701Z,7.10
2018-11-01T00:36:52.702Z,7.10
2018-11-01T00:39:21.659Z,7.10
2018-11-01T00:41:50.628Z,7.00
2018-11-01T00:44:19.623Z,7.00
2018-11-01T00:46:48.587Z,7.00
2018-11-01T00:49:17.599Z,7.10
2018-11-01T00:51:46.589Z,7.10
2018-11-01T00:54:15.619Z,7.20
2018-11-01T00:56:44.652Z,7.20
2018-11-01T00:59:13.611Z,7.30
2018-11-01T01:01:42.610Z,7.20
2018-11-01T01:04:11.639Z,7.30
2018-11-01T01:06:40.582Z,7.30
2018-11-01T01:09:11.818Z,7.30
2018-11-01T01:11:41.092Z,7.30
2018-11-01T01:14:10.787Z,7.30
2018-11-01T01:16:39.812Z,7.40
2018-11-01T01:19:08.764Z,7.40
2018-11-01T01:21:37.848Z,7.40
2018-11-01T01:24:06.924Z,7.40
2018-11-01T01:26:35.971Z,7.30
2018-11-01T01:29:05.055Z,7.20
2018-11-01T01:31:34.082Z,7.10
2018-11-01T01:34:03.053Z,7.00
2018-11-01T01:36:32.020Z,6.90
2018-11-01T01:39:01.340Z,6.80
2018-11-01T01:41:30.316Z,6.70
2018-11-01T01:43:59.304Z,6.70
2018-11-01T01:46:28.242Z,6.60
2018-11-01T01:48:57.254Z,6.50
2018-11-01T01:51:26.246Z,6.40
2018-11-01T01:53:55.251Z,6.30
2018-11-01T01:56:24.323Z,6.20
2018-11-01T01:58:53.292Z,6.10
2018-11-01T02:01:22.353Z,6.10
2018-11-01T02:03:51.328Z,6.00
2018-11-01T02:06:20.338Z,6.00
2018-11-01T02:08:49.280Z,6.00
2018-11-01T02:11:18.275Z,6.00
2018-11-01T02:13:47.315Z,6.00
2018-11-01T02:16:16.324Z,6.00
2018-11-01T02:18:45.280Z,6.00
2018-11-01T02:21:14.332Z,6.00
2018-11-01T02:23:43.380Z,6.00
2018-11-01T02:26:12.399Z,6.00
2018-11-01T02:28:41.399Z,6.10
2018-11-01T02:31:10.356Z,6.10
2018-11-01T02:33:39.315Z,6.10
2018-11-01T02:36:08.302Z,6.10
2018-11-01T02:38:37.314Z,6.10
2018-11-01T02:41:06.360Z,6.10
2018-11-01T02:43:35.311Z,6.00
2018-11-01T02:46:04.371Z,6.10
2018-11-01T02:48:33.412Z,6.10
2018-11-01T02:51:02.377Z,6.10
2018-11-01T02:53:31.384Z,6.10
2018-11-01T02:56:00.397Z,6.20
2018-11-01T02:58:29.386Z,6.20
2018-11-01T03:00:58.373Z,6.30
2018-11-01T03:03:27.356Z,6.30
2018-11-01T03:05:56.845Z,6.40
2018-11-01T03:08:25.928Z,6.40
2018-11-01T03:10:54.949Z,6.50
2018-11-01T03:13:23.947Z,6.60
2018-11-01T03:15:52.976Z,6.70
2018-11-01T03:18:21.949Z,6.80
2018-11-01T03:20:50.976Z,6.80
2018-11-01T03:23:20.040Z,6.70
2018-11-01T03:25:48.998Z,6.70
2018-11-01T03:28:17.983Z,6.80
2018-11-01T03:30:47.070Z,6.80
2018-11-01T03:33:16.034Z,6.90
2018-11-01T03:35:45.035Z,6.90
2018-11-01T03:38:14.077Z,6.90
2018-11-01T03:40:43.041Z,6.90
2018-11-01T03:43:12.031Z,6.90
2018-11-01T03:45:41.189Z,6.80
2018-11-01T03:48:10.097Z,6.80
2018-11-01T03:50:39.107Z,6.70
2018-11-01T03:53:08.160Z,6.70
2018-11-01T03:55:37.164Z,6.70
2018-11-01T03:58:06.544Z,6.70
2018-11-01T04:00:35.593Z,6.80
2018-11-01T04:03:06.127Z,6.80
2018-11-01T04:05:35.141Z,6.90
2018-11-01T04:08:04.223Z,6.90
2018-11-01T04:10:39.865Z,7.00
2018-11-01T04:13:08.922Z,7.00
2018-11-01T04:15:38.004Z,7.00
2018-11-01T04:18:07.000Z,6.90
2018-11-01T04:20:36.138Z,6.90
2018-11-01T04:23:05.466Z,6.90
2018-11-01T04:25:34.483Z,6.90
2018-11-01T04:28:03.479Z,6.90
2018-11-01T04:30:32.489Z,7.00
2018-11-01T04:33:01.567Z,7.00
2018-11-01T04:35:30.496Z,7.00
2018-11-01T04:37:59.521Z,7.10
2018-11-01T04:40:28.513Z,7.10
2018-11-01T04:42:57.543Z,7.10
2018-11-01T04:45:26.572Z,7.20
2018-11-01T04:47:55.694Z,7.20
2018-11-01T04:50:24.720Z,7.20
2018-11-01T04:52:53.879Z,7.20
2018-11-01T04:55:22.871Z,7.20
2018-11-01T04:57:51.895Z,7.20
2018-11-01T05:00:20.922Z,7.20
2018-11-01T05:02:50.259Z,7.20
2018-11-01T05:05:19.312Z,7.10
2018-11-01T05:07:48.288Z,7.00
2018-11-01T05:10:17.279Z,7.00
2018-11-01T05:12:46.381Z,6.90
2018-11-01T05:15:15.516Z,6.90
2018-11-01T05:17:44.529Z,6.90
2018-11-01T05:20:13.546Z,6.90
2018-11-01T05:22:42.703Z,6.80
2018-11-01T05:25:11.934Z,6.70
2018-11-01T05:27:41.385Z,6.70
2018-11-01T05:30:11.947Z,6.60
2018-11-01T05:32:41.132Z,6.50
2018-11-01T05:35:10.640Z,6.50
2018-11-01T05:37:39.721Z,6.40
2018-11-01T05:40:10.142Z,6.40
2018-11-01T05:42:39.185Z,6.30
2018-11-01T05:45:08.179Z,6.20
2018-11-01T05:47:37.221Z,6.10
2018-11-01T05:50:06.814Z,6.10
2018-11-01T05:52:35.777Z,6.00
2018-11-01T05:55:05.308Z,6.00
2018-11-01T05:57:34.500Z,5.90
2018-11-01T06:00:03.677Z,5.80
2018-11-01T06:02:35.820Z,5.80
2018-11-01T06:05:05.612Z,5.80
2018-11-01T06:07:39.661Z,5.70
2018-11-01T06:10:08.782Z,5.70
2018-11-01T06:12:37.997Z,5.60
2018-11-01T06:15:08.190Z,5.50
2018-11-01T06:17:37.274Z,5.50
2018-11-01T06:20:07.394Z,5.40
2018-11-01T06:22:36.457Z,5.40
2018-11-01T06:25:06.473Z,5.30
2018-11-01T06:27:35.562Z,5.30
2018-11-01T06:30:06.310Z,5.30
2018-11-01T06:32:35.369Z,5.30
2018-11-01T06:35:06.839Z,5.20
2018-11-01T06:37:35.856Z,5.20
2018-11-01T06:40:05.473Z,5.20
2018-11-01T06:42:34.507Z,5.20
2018-11-01T06:45:03.512Z,5.20
2018-11-01T06:47:32.640Z,5.20
2018-11-01T06:50:01.650Z,5.20
2018-11-01T06:52:30.832Z,5.20
2018-11-01T06:54:59.755Z,5.20
2018-11-01T06:57:29.044Z,5.20
2018-11-01T06:59:58.069Z,5.30
2018-11-01T07:02:27.082Z,5.40
2018-11-01T07:04:56.327Z,5.40
2018-11-01T07:07:25.721Z,5.40
2018-11-01T07:09:55.116Z,5.50
2018-11-01T07:12:24.437Z,5.60
2018-11-01T07:14:53.480Z,5.60
2018-11-01T07:17:22.815Z,5.60
2018-11-01T07:19:51.655Z,5.60
2018-11-01T07:22:20.709Z,5.60
2018-11-01T07:24:49.722Z,5.60
2018-11-01T07:27:18.844Z,5.70
2018-11-01T07:29:47.896Z,5.80
2018-11-01T07:32:16.976Z,5.90
2018-11-01T07:34:45.974Z,6.00
2018-11-01T07:37:15.000Z,6.00
2018-11-01T07:39:44.119Z,6.10
2018-11-01T07:42:13.309Z,6.10
2018-11-01T07:44:42.484Z,6.10
2018-11-01T07:47:11.530Z,6.20
2018-11-01T07:49:40.541Z,6.20
2018-11-01T07:52:09.570Z,6.30
2018-11-01T07:54:38.737Z,6.30
2018-11-01T07:57:07.735Z,6.40
2018-11-01T07:59:36.753Z,6.40
2018-11-01T08:02:05.797Z,6.50
2018-11-01T08:04:34.816Z,6.60
2018-11-01T08:07:03.785Z,6.70
2018-11-01T08:09:32.812Z,6.70
2018-11-01T08:12:01.821Z,6.80
2018-11-01T08:14:31.136Z,6.90
2018-11-01T08:17:00.121Z,7.00
2018-11-01T08:19:29.245Z,7.00
2018-11-01T08:21:58.293Z,7.10
2018-11-01T08:24:27.356Z,7.20
2018-11-01T08:26:56.348Z,7.30
2018-11-01T08:29:25.320Z,7.40
2018-11-01T08:31:54.338Z,7.50
2018-11-01T08:34:23.422Z,7.60
2018-11-01T08:36:52.447Z,7.60
2018-11-01T08:39:21.554Z,7.70
2018-11-01T08:41:50.610Z,7.70
2018-11-01T08:44:19.602Z,7.80
2018-11-01T08:46:49.288Z,7.80
2018-11-01T08:49:18.278Z,7.90
2018-11-01T08:51:47.399Z,8.00
2018-11-01T08:54:16.392Z,8.10
2018-11-01T08:56:45.529Z,8.20
2018-11-01T08:59:14.607Z,8.20
2018-11-01T09:01:43.675Z,8.40
2018-11-01T09:04:12.719Z,8.50
2018-11-01T09:06:41.787Z,8.60
2018-11-01T09:09:10.836Z,8.70
2018-11-01T09:11:39.899Z,8.80
2018-11-01T09:14:08.956Z,9.00
2018-11-01T09:16:37.984Z,9.10
2018-11-01T09:19:07.284Z,9.20
2018-11-01T09:21:36.369Z,9.40
2018-11-01T09:24:06.163Z,9.60
2018-11-01T09:26:35.231Z,9.70
2018-11-01T09:29:04.335Z,9.90
2018-11-01T09:31:33.359Z,10.00
2018-11-01T09:34:02.358Z,10.20
2018-11-01T09:36:31.400Z,10.30
2018-11-01T09:39:00.537Z,10.40
2018-11-01T09:41:29.580Z,10.60
2018-11-01T09:43:58.579Z,10.70
2018-11-01T09:46:27.714Z,10.70
2018-11-01T09:48:56.592Z,10.80
2018-11-01T09:51:25.613Z,10.80
2018-11-01T09:53:54.647Z,10.90
2018-11-01T09:56:23.693Z,10.90
2018-11-01T09:58:52.735Z,11.00
2018-11-01T10:01:21.727Z,11.00
2018-11-01T10:03:50.773Z,11.10
2018-11-01T10:06:19.793Z,11.20
2018-11-01T10:08:48.828Z,11.20
2018-11-01T10:11:17.810Z,11.30
2018-11-01T10:13:46.854Z,11.30
2018-11-01T10:16:15.876Z,11.30
2018-11-01T10:18:44.835Z,11.40
2018-11-01T10:21:13.793Z,11.40
2018-11-01T10:23:42.825Z,11.40
2018-11-01T10:26:11.783Z,11.40
2018-11-01T10:28:40.764Z,11.50
2018-11-01T10:31:09.735Z,11.50
2018-11-01T10:33:38.803Z,11.50
2018-11-01T10:36:07.845Z,11.60
2018-11-01T10:38:36.862Z,11.60
2018-11-01T10:41:05.969Z,11.70
2018-11-01T10:43:35.145Z,11.70
2018-11-01T10:46:04.165Z,11.70
2018-11-01T10:48:33.187Z,11.80
2018-11-01T10:51:02.256Z,11.80
2018-11-01T10:53:31.273Z,11.90
2018-11-01T10:56:00.269Z,12.00
2018-11-01T10:58:29.301Z,12.00
2018-11-01T11:01:03.649Z,12.10
2018-11-01T11:03:32.589Z,12.20
2018-11-01T11:06:01.571Z,12.20
2018-11-01T11:08:30.547Z,12.30
2018-11-01T11:10:59.573Z,12.30
2018-11-01T11:13:28.550Z,12.30
2018-11-01T11:15:57.569Z,12.40
2018-11-01T11:18:26.659Z,12.40
2018-11-01T11:20:56.076Z,12.40
2018-11-01T11:23:24.880Z,12.40
2018-11-01T11:25:53.920Z,12.40
2018-11-01T11:28:23.155Z,12.50
2018-11-01T11:30:52.280Z,12.50
2018-11-01T11:33:21.243Z,12.60
2018-11-01T11:35:50.272Z,12.60
2018-11-01T11:38:19.226Z,12.60
2018-11-01T11:40:48.233Z,12.60
2018-11-01T11:43:17.181Z,12.60
2018-11-01T11:45:46.188Z,12.60
2018-11-01T11:48:15.216Z,12.60
2018-11-01T11:50:44.217Z,12.60
2018-11-01T11:53:13.185Z,12.70
2018-11-01T11:55:42.149Z,12.60
2018-11-01T11:58:11.131Z,12.60
2018-11-01T12:00:40.066Z,12.60
2018-11-01T12:03:15.697Z,12.60
2018-11-01T12:05:44.801Z,12.60
2018-11-01T12:08:13.825Z,12.50
2018-11-01T12:10:42.776Z,12.60
2018-11-01T12:13:11.788Z,12.50
2018-11-01T12:15:40.756Z,12.50
2018-11-01T12:18:09.767Z,12.50
2018-11-01T12:20:38.876Z,12.40
2018-11-01T12:23:07.916Z,12.40
2018-11-01T12:25:36.921Z,12.40
2018-11-01T12:28:06.220Z,12.40
2018-11-01T12:30:35.168Z,12.40
2018-11-01T12:33:04.125Z,12.40
2018-11-01T12:35:33.296Z,12.40
2018-11-01T12:38:02.198Z,12.40
2018-11-01T12:40:31.201Z,12.40
2018-11-01T12:43:00.148Z,12.40
2018-11-01T12:45:29.148Z,12.50
2018-11-01T12:47:58.154Z,12.50
2018-11-01T12:50:27.212Z,12.50
2018-11-01T12:52:56.149Z,12.50
2018-11-01T12:55:25.107Z,12.50
2018-11-01T12:57:54.107Z,12.50
2018-11-01T13:00:23.109Z,12.40
2018-11-01T13:02:52.119Z,12.40
2018-11-01T13:05:21.166Z,12.30
2018-11-01T13:07:50.178Z,12.30
2018-11-01T13:10:20.431Z,12.30
2018-11-01T13:12:49.479Z,12.30
2018-11-01T13:15:18.461Z,12.20
2018-11-01T13:17:47.631Z,12.20
2018-11-01T13:20:16.605Z,12.10
2018-11-01T13:22:47.331Z,12.10
2018-11-01T13:25:17.733Z,12.00
2018-11-01T13:27:46.792Z,12.00
2018-11-01T13:30:16.272Z,12.00
2018-11-01T13:32:46.103Z,12.00
2018-11-01T13:35:15.494Z,11.90
2018-11-01T13:37:44.584Z,11.90
2018-11-01T13:40:13.860Z,11.80
2018-11-01T13:42:42.835Z,11.70
2018-11-01T13:45:11.908Z,11.70
2018-11-01T13:47:40.982Z,11.70
2018-11-01T13:50:10.753Z,11.70
2018-11-01T13:52:39.908Z,11.60
2018-11-01T13:55:10.380Z,11.60
2018-11-01T13:57:39.508Z,11.50
2018-11-01T14:00:09.208Z,11.40
2018-11-01T14:02:41.875Z,11.40
2018-11-01T14:05:12.246Z,11.30
2018-11-01T14:07:41.907Z,11.30
2018-11-01T14:10:13.125Z,11.20
2018-11-01T14:12:42.267Z,11.20
2018-11-01T14:15:12.046Z,11.10
2018-11-01T14:17:41.232Z,11.10
2018-11-01T14:20:12.030Z,11.00
2018-11-01T14:22:41.338Z,10.90
2018-11-01T14:25:11.441Z,10.90
2018-11-01T14:27:40.491Z,10.80
2018-11-01T14:30:13.099Z,10.70
2018-11-01T14:32:42.141Z,10.70
2018-11-01T14:35:11.652Z,10.70
2018-11-01T14:37:40.764Z,10.60
2018-11-01T14:40:11.970Z,10.60
2018-11-01T14:42:41.127Z,10.50
2018-11-01T14:45:10.560Z,10.50
2018-11-01T14:47:40.843Z,10.50
2018-11-01T14:50:12.775Z,10.40
2018-11-01T14:52:42.373Z,10.40
2018-11-01T14:55:12.286Z,10.40
2018-11-01T14:57:42.708Z,10.30
2018-11-01T15:00:11.390Z,10.30
2018-11-01T15:02:40.560Z,10.30
2018-11-01T15:05:10.012Z,10.20
2018-11-01T15:07:39.099Z,10.20
2018-11-01T15:10:10.180Z,10.20
2018-11-01T15:12:39.431Z,10.10
2018-11-01T15:15:09.060Z,10.10
2018-11-01T15:17:38.421Z,10.00
2018-11-01T15:20:07.984Z,10.00
2018-11-01T15:22:37.324Z,10.00
2018-11-01T15:25:07.208Z,9.90
2018-11-01T15:27:36.572Z,9.90
2018-11-01T15:33:09.284Z,9.90
2018-11-01T15:35:38.296Z,9.80
2018-11-01T15:38:07.365Z,9.80
2018-11-01T15:40:36.369Z,9.70
2018-11-01T15:43:05.486Z,9.70
2018-11-01T15:45:34.566Z,9.70
2018-11-01T15:48:03.636Z,9.60
2018-11-01T15:50:32.700Z,9.60
2018-11-01T15:53:01.690Z,9.60
2018-11-01T15:55:30.700Z,9.50
2018-11-01T15:57:59.712Z,9.50
2018-11-01T16:00:28.745Z,9.40
2018-11-01T16:02:57.785Z,9.30
2018-11-01T16:05:26.843Z,9.20
2018-11-01T16:07:55.979Z,9.10
2018-11-01T16:10:24.979Z,9.00
2018-11-01T16:12:53.996Z,9.00
2018-11-01T16:15:23.039Z,8.90
2018-11-01T16:17:52.055Z,8.90
2018-11-01T16:20:21.204Z,8.90
2018-11-01T16:22:50.202Z,8.80
2018-11-01T16:25:19.248Z,8.80
2018-11-01T16:27:48.270Z,8.70
2018-11-01T16:30:17.285Z,8.70
2018-11-01T16:32:46.317Z,8.70
2018-11-01T16:35:15.333Z,8.60
2018-11-01T16:37:44.309Z,8.60
2018-11-01T16:40:13.572Z,8.60
2018-11-01T16:42:42.653Z,8.60
2018-11-01T16:45:14.070Z,8.60
2018-11-01T16:47:43.157Z,8.60
2018-11-01T16:50:12.267Z,8.60
2018-11-01T16:52:42.120Z,8.60
2018-11-01T16:55:11.408Z,8.50
2018-11-01T16:57:40.395Z,8.60
2018-11-01T17:00:10.727Z,8.50
2018-11-01T17:02:39.881Z,8.50
2018-11-01T17:05:09.572Z,8.50
2018-11-01T17:07:38.649Z,8.50
2018-11-01T17:10:09.221Z,8.50
2018-11-01T17:12:38.801Z,8.50
2018-11-01T17:15:09.501Z,8.50
2018-11-01T17:17:38.544Z,8.50
2018-11-01T17:20:07.570Z,8.50
2018-11-01T17:22:36.606Z,8.50
2018-11-01T17:25:06.149Z,8.50
2018-11-01T17:27:35.176Z,8.50
2018-11-01T17:30:08.572Z,8.50
2018-11-01T17:32:43.020Z,8.50
2018-11-01T17:35:12.059Z,8.50
2018-11-01T17:37:41.047Z,8.50
2018-11-01T17:40:10.523Z,8.50
2018-11-01T17:42:39.493Z,8.50
2018-11-01T17:45:09.231Z,8.50
2018-11-01T17:47:38.830Z,8.50
2018-11-01T17:50:10.117Z,8.50
2018-11-01T17:52:39.181Z,8.50
2018-11-01T17:55:08.199Z,8.50
2018-11-01T17:57:37.481Z,8.50
2018-11-01T18:00:08.468Z,8.50
2018-11-01T18:02:37.498Z,8.50
2018-11-01T18:05:06.880Z,8.60
2018-11-01T18:07:35.876Z,8.60
2018-11-01T18:10:05.283Z,8.60
2018-11-01T18:12:34.245Z,8.60
2018-11-01T18:15:03.297Z,8.60
2018-11-01T18:17:32.283Z,8.60
2018-11-01T18:20:01.305Z,8.60
2018-11-01T18:22:30.340Z,8.60
2018-11-01T18:24:59.344Z,8.70
2018-11-01T18:27:28.360Z,8.70
2018-11-01T18:29:57.398Z,8.70
2018-11-01T18:32:26.533Z,8.70
2018-11-01T18:34:56.242Z,8.70
2018-11-01T18:37:26.526Z,8.70
2018-11-01T18:39:57.342Z,8.70
2018-11-01T18:42:27.691Z,8.70
2018-11-01T18:44:57.973Z,8.70
2018-11-01T18:47:30.028Z,8.70
2018-11-01T18:50:02.015Z,8.70
2018-11-01T18:52:32.317Z,8.70
2018-11-01T18:55:02.759Z,8.70
2018-11-01T18:57:32.708Z,8.70
2018-11-01T19:00:03.056Z,8.70
2018-11-01T19:02:33.095Z,8.70
2018-11-01T19:05:03.401Z,8.70
2018-11-01T19:07:33.434Z,8.70
2018-11-01T19:10:03.497Z,8.60
2018-11-01T19:12:33.996Z,8.70
2018-11-01T19:15:05.251Z,8.60
2018-11-01T19:17:36.728Z,8.60
2018-11-01T19:20:09.849Z,8.60
2018-11-01T19:22:40.863Z,8.60
2018-11-01T19:25:11.181Z,8.60
2018-11-01T19:27:42.931Z,8.60
2018-11-01T19:30:14.460Z,8.60
2018-11-01T19:32:44.433Z,8.60
2018-11-01T19:35:15.170Z,8.60
2018-11-01T19:37:45.445Z,8.60
2018-11-01T19:40:16.482Z,8.60
2018-11-01T19:42:46.735Z,8.60
2018-11-01T19:45:16.856Z,8.60
2018-11-01T19:47:46.692Z,8.60
2018-11-01T19:50:16.877Z,8.60
2018-11-01T19:52:46.537Z,8.60
2018-11-01T19:55:16.264Z,8.60
2018-11-01T19:57:45.854Z,8.60
2018-11-01T20:00:17.145Z,8.60
2018-11-01T20:02:49.087Z,8.60
2018-11-01T20:05:18.877Z,8.60
2018-11-01T20:07:48.679Z,8.70
2018-11-01T20:10:18.276Z,8.60
2018-11-01T20:12:47.764Z,8.70
2018-11-01T20:15:17.044Z,8.60
2018-11-01T20:17:46.384Z,8.60
2018-11-01T20:20:16.455Z,8.60
2018-11-01T20:22:46.356Z,8.60
2018-11-01T20:25:15.488Z,8.50
2018-11-01T20:27:44.818Z,8.50
2018-11-01T20:30:15.622Z,8.60
2018-11-01T20:32:45.472Z,8.60
2018-11-01T20:35:16.292Z,8.50
2018-11-01T20:37:45.477Z,8.50
2018-11-01T20:40:15.492Z,8.60
2018-11-01T20:42:44.783Z,8.60
2018-11-01T20:45:14.578Z,8.60
2018-11-01T20:47:43.837Z,8.60
2018-11-01T20:50:13.862Z,8.60
2018-11-01T20:52:43.531Z,8.70
2018-11-01T20:55:12.600Z,8.60
2018-11-01T20:57:41.833Z,8.60
2018-11-01T21:00:13.056Z,8.60
2018-11-01T21:02:42.344Z,8.60
2018-11-01T21:05:11.636Z,8.60
2018-11-01T21:07:41.015Z,8.60
2018-11-01T21:10:10.727Z,8.60
2018-11-01T21:12:40.387Z,8.60
2018-11-01T21:15:11.570Z,8.60
2018-11-01T21:17:41.822Z,8.70
2018-11-01T21:20:10.821Z,8.70
2018-11-01T21:22:40.166Z,8.70
2018-11-01T21:25:10.260Z,8.70
2018-11-01T21:27:39.337Z,8.70
2018-11-01T21:30:08.835Z,8.80
2018-11-01T21:32:37.889Z,8.80
2018-11-01T21:35:07.361Z,8.80
2018-11-01T21:37:36.362Z,8.80
2018-11-01T21:40:07.209Z,8.90
2018-11-01T21:42:36.578Z,8.90
2018-11-01T21:45:07.848Z,8.90
2018-11-01T21:47:37.089Z,8.90
2018-11-01T21:50:06.228Z,8.90
2018-11-01T21:52:35.263Z,8.80
2018-11-01T21:55:04.331Z,8.80
2018-11-01T21:57:33.408Z,8.80
2018-11-01T22:00:02.536Z,8.80
2018-11-01T22:02:31.529Z,8.80
2018-11-01T22:05:00.762Z,8.80
2018-11-01T22:07:30.472Z,8.80
2018-11-01T22:09:59.597Z,8.80
2018-11-01T22:12:28.576Z,8.80
2018-11-01T22:15:05.751Z,8.80
2018-11-01T22:17:34.761Z,8.80
2018-11-01T22:20:04.600Z,8.70
2018-11-01T22:22:35.204Z,8.70
2018-11-01T22:25:04.817Z,8.70
2018-11-01T22:27:34.097Z,8.70
2018-11-01T22:30:03.258Z,8.60
2018-11-01T22:32:32.718Z,8.60
2018-11-01T22:35:01.950Z,8.50
2018-11-01T22:37:31.139Z,8.50
2018-11-01T22:40:00.136Z,8.50
2018-11-01T22:42:29.230Z,8.60
2018-11-01T22:44:58.320Z,8.60
2018-11-01T22:47:27.420Z,8.60
2018-11-01T22:49:56.653Z,8.70
2018-11-01T22:52:25.800Z,8.70
2018-11-01T22:54:55.409Z,8.70
2018-11-01T22:57:24.713Z,8.70
2018-11-01T22:59:53.761Z,8.80
2018-11-01T23:02:22.802Z,8.80
2018-11-01T23:04:51.842Z,8.80
2018-11-01T23:07:20.857Z,8.90
2018-11-01T23:09:49.851Z,8.90
2018-11-01T23:12:19.889Z,8.90
2018-11-01T23:14:49.268Z,8.80
2018-11-01T23:17:18.277Z,8.80
2018-11-01T23:19:47.652Z,8.70
2018-11-01T23:22:16.680Z,8.60
2018-11-01T23:24:46.129Z,8.50
2018-11-01T23:27:15.264Z,8.40
2018-11-01T23:29:44.301Z,8.30
2018-11-01T23:32:13.311Z,8.20
2018-11-01T23:34:42.318Z,8.10
2018-11-01T23:37:16.669Z,8.00
2018-11-01T23:39:51.080Z,7.90
2018-11-01T23:42:25.417Z,7.90
2018-11-01T23:44:59.850Z,7.90
2018-11-01T23:47:34.388Z,7.90
2018-11-01T23:50:25.503Z,7.90
2018-11-01T23:52:58.750Z,7.90
2018-11-01T23:55:27.745Z,7.80
2018-11-01T23:57:56.770Z,7.90
